sensor_id;sensor_type;location;lat;lon;timestamp;P1;durP1;ratioP1;P2;durP2;ratioP2
22248;SDS011;67538;52.180;5.646;2023-09-18T00:02:06;46.58;;;29.42;;
22248;SDS011;67538;52.180;5.646;2023-09-18T00:04:33;51.22;;;30.85;;
22248;SDS011;67538;52.180;5.646;2023-09-18T00:07:00;52.40;;;30.52;;
22248;SDS011;67538;52.180;5.646;2023-09-18T00:09:27;56.83;;;31.38;;
22248;SDS011;67538;52.180;5.646;2023-09-18T00:11:54;50.60;;;30.03;;
22248;SDS011;67538;52.180;5.646;2023-09-18T00:14:23;50.75;;;29.65;;
22248;SDS011;67538;52.180;5.646;2023-09-18T00:16:50;47.08;;;29.10;;
22248;SDS011;67538;52.180;5.646;2023-09-18T00:19:18;49.03;;;30.85;;
22248;SDS011;67538;52.180;5.646;2023-09-18T00:21:45;47.97;;;30.08;;
22248;SDS011;67538;52.180;5.646;2023-09-18T00:24:12;50.20;;;31.30;;
22248;SDS011;67538;52.180;5.646;2023-09-18T00:26:39;50.45;;;31.73;;
22248;SDS011;67538;52.180;5.646;2023-09-18T00:29:06;48.88;;;30.50;;
22248;SDS011;67538;52.180;5.646;2023-09-18T00:31:35;62.45;;;34.30;;
22248;SDS011;67538;52.180;5.646;2023-09-18T00:34:02;63.95;;;33.78;;
22248;SDS011;67538;52.180;5.646;2023-09-18T00:36:29;47.07;;;30.10;;
22248;SDS011;67538;52.180;5.646;2023-09-18T00:38:56;47.83;;;30.13;;
22248;SDS011;67538;52.180;5.646;2023-09-18T00:41:23;48.88;;;29.48;;
22248;SDS011;67538;52.180;5.646;2023-09-18T00:43:50;49.00;;;31.13;;
22248;SDS011;67538;52.180;5.646;2023-09-18T00:46:17;44.05;;;29.13;;
22248;SDS011;67538;52.180;5.646;2023-09-18T00:48:46;49.40;;;29.95;;
22248;SDS011;67538;52.180;5.646;2023-09-18T00:51:13;48.65;;;29.52;;
22248;SDS011;67538;52.180;5.646;2023-09-18T00:53:41;51.35;;;29.80;;
22248;SDS011;67538;52.180;5.646;2023-09-18T00:56:10;44.72;;;29.05;;
22248;SDS011;67538;52.180;5.646;2023-09-18T00:58:37;50.63;;;30.55;;
22248;SDS011;67538;52.180;5.646;2023-09-18T01:01:04;50.53;;;30.92;;
22248;SDS011;67538;52.180;5.646;2023-09-18T01:03:32;49.97;;;29.30;;
22248;SDS011;67538;52.180;5.646;2023-09-18T01:06:00;53.42;;;30.77;;
22248;SDS011;67538;52.180;5.646;2023-09-18T01:08:28;45.13;;;27.77;;
22248;SDS011;67538;52.180;5.646;2023-09-18T01:11:00;45.28;;;28.08;;
22248;SDS011;67538;52.180;5.646;2023-09-18T01:13:35;44.47;;;28.63;;
22248;SDS011;67538;52.180;5.646;2023-09-18T01:16:08;41.10;;;27.27;;
22248;SDS011;67538;52.180;5.646;2023-09-18T01:18:48;40.53;;;26.30;;
22248;SDS011;67538;52.180;5.646;2023-09-18T01:21:17;38.80;;;25.45;;
22248;SDS011;67538;52.180;5.646;2023-09-18T01:23:46;42.13;;;26.30;;
22248;SDS011;67538;52.180;5.646;2023-09-18T01:26:14;36.92;;;24.95;;
22248;SDS011;67538;52.180;5.646;2023-09-18T01:28:41;40.58;;;25.70;;
22248;SDS011;67538;52.180;5.646;2023-09-18T01:31:08;40.78;;;25.73;;
22248;SDS011;67538;52.180;5.646;2023-09-18T01:33:35;40.05;;;25.85;;
22248;SDS011;67538;52.180;5.646;2023-09-18T01:36:04;44.35;;;26.98;;
22248;SDS011;67538;52.180;5.646;2023-09-18T01:38:34;46.45;;;27.40;;
22248;SDS011;67538;52.180;5.646;2023-09-18T01:41:04;45.15;;;26.95;;
22248;SDS011;67538;52.180;5.646;2023-09-18T01:43:31;39.67;;;26.10;;
22248;SDS011;67538;52.180;5.646;2023-09-18T01:45:59;39.20;;;25.95;;
22248;SDS011;67538;52.180;5.646;2023-09-18T01:48:28;42.60;;;26.85;;
22248;SDS011;67538;52.180;5.646;2023-09-18T01:50:55;46.50;;;26.42;;
22248;SDS011;67538;52.180;5.646;2023-09-18T01:53:22;46.30;;;27.05;;
22248;SDS011;67538;52.180;5.646;2023-09-18T01:55:51;41.30;;;25.38;;
22248;SDS011;67538;52.180;5.646;2023-09-18T01:58:20;39.08;;;25.88;;
22248;SDS011;67538;52.180;5.646;2023-09-18T02:00:47;38.80;;;25.60;;
22248;SDS011;67538;52.180;5.646;2023-09-18T02:03:14;42.83;;;25.80;;
22248;SDS011;67538;52.180;5.646;2023-09-18T02:05:43;45.65;;;26.02;;
22248;SDS011;67538;52.180;5.646;2023-09-18T02:08:10;48.42;;;27.50;;
22248;SDS011;67538;52.180;5.646;2023-09-18T02:10:37;44.53;;;27.80;;
22248;SDS011;67538;52.180;5.646;2023-09-18T02:13:04;48.70;;;27.38;;
22248;SDS011;67538;52.180;5.646;2023-09-18T02:15:33;40.63;;;26.33;;
22248;SDS011;67538;52.180;5.646;2023-09-18T02:18:04;50.67;;;27.77;;
22248;SDS011;67538;52.180;5.646;2023-09-18T02:20:31;45.97;;;27.52;;
22248;SDS011;67538;52.180;5.646;2023-09-18T02:23:04;50.22;;;29.30;;
22248;SDS011;67538;52.180;5.646;2023-09-18T02:25:31;51.42;;;29.38;;
22248;SDS011;67538;52.180;5.646;2023-09-18T02:27:58;50.25;;;29.17;;
22248;SDS011;67538;52.180;5.646;2023-09-18T02:30:25;48.67;;;28.55;;
22248;SDS011;67538;52.180;5.646;2023-09-18T02:32:55;48.42;;;27.90;;
22248;SDS011;67538;52.180;5.646;2023-09-18T02:35:22;45.83;;;28.45;;
22248;SDS011;67538;52.180;5.646;2023-09-18T02:37:49;47.63;;;28.63;;
22248;SDS011;67538;52.180;5.646;2023-09-18T02:40:16;49.30;;;28.38;;
22248;SDS011;67538;52.180;5.646;2023-09-18T02:42:43;46.20;;;29.10;;
22248;SDS011;67538;52.180;5.646;2023-09-18T02:45:10;47.33;;;27.95;;
22248;SDS011;67538;52.180;5.646;2023-09-18T02:47:37;46.47;;;27.08;;
22248;SDS011;67538;52.180;5.646;2023-09-18T02:50:08;46.35;;;26.35;;
22248;SDS011;67538;52.180;5.646;2023-09-18T02:52:36;41.70;;;26.30;;
22248;SDS011;67538;52.180;5.646;2023-09-18T02:55:04;44.60;;;26.55;;
22248;SDS011;67538;52.180;5.646;2023-09-18T02:57:31;42.92;;;25.92;;
22248;SDS011;67538;52.180;5.646;2023-09-18T02:59:58;39.08;;;24.40;;
22248;SDS011;67538;52.180;5.646;2023-09-18T03:02:25;40.93;;;24.67;;
22248;SDS011;67538;52.180;5.646;2023-09-18T03:04:52;37.37;;;24.67;;
22248;SDS011;67538;52.180;5.646;2023-09-18T03:07:21;39.97;;;23.88;;
22248;SDS011;67538;52.180;5.646;2023-09-18T03:09:48;43.57;;;24.33;;
22248;SDS011;67538;52.180;5.646;2023-09-18T03:12:15;43.45;;;24.13;;
22248;SDS011;67538;52.180;5.646;2023-09-18T03:14:42;45.25;;;24.02;;
22248;SDS011;67538;52.180;5.646;2023-09-18T03:17:09;41.15;;;24.08;;
22248;SDS011;67538;52.180;5.646;2023-09-18T03:19:36;39.22;;;24.00;;
22248;SDS011;67538;52.180;5.646;2023-09-18T03:22:04;37.88;;;23.85;;
22248;SDS011;67538;52.180;5.646;2023-09-18T03:24:32;37.13;;;23.70;;
22248;SDS011;67538;52.180;5.646;2023-09-18T03:26:59;38.70;;;23.40;;
22248;SDS011;67538;52.180;5.646;2023-09-18T03:29:26;42.22;;;24.05;;
22248;SDS011;67538;52.180;5.646;2023-09-18T03:31:55;38.27;;;24.93;;
22248;SDS011;67538;52.180;5.646;2023-09-18T03:34:24;43.40;;;25.50;;
22248;SDS011;67538;52.180;5.646;2023-09-18T03:36:52;42.83;;;25.23;;
22248;SDS011;67538;52.180;5.646;2023-09-18T03:39:19;47.08;;;24.85;;
22248;SDS011;67538;52.180;5.646;2023-09-18T03:41:48;43.40;;;24.48;;
22248;SDS011;67538;52.180;5.646;2023-09-18T03:44:15;41.35;;;25.70;;
22248;SDS011;67538;52.180;5.646;2023-09-18T03:46:42;42.67;;;24.95;;
22248;SDS011;67538;52.180;5.646;2023-09-18T03:49:10;43.00;;;25.27;;
22248;SDS011;67538;52.180;5.646;2023-09-18T03:51:37;42.58;;;24.55;;
22248;SDS011;67538;52.180;5.646;2023-09-18T03:54:04;41.50;;;24.63;;
22248;SDS011;67538;52.180;5.646;2023-09-18T03:56:31;42.40;;;24.90;;
22248;SDS011;67538;52.180;5.646;2023-09-18T03:58:59;42.80;;;24.60;;
22248;SDS011;67538;52.180;5.646;2023-09-18T04:01:27;38.17;;;24.27;;
22248;SDS011;67538;52.180;5.646;2023-09-18T04:03:54;38.63;;;23.50;;
22248;SDS011;67538;52.180;5.646;2023-09-18T04:06:21;41.22;;;24.33;;
22248;SDS011;67538;52.180;5.646;2023-09-18T04:08:49;38.27;;;24.67;;
22248;SDS011;67538;52.180;5.646;2023-09-18T04:11:17;40.25;;;23.27;;
22248;SDS011;67538;52.180;5.646;2023-09-18T04:13:48;37.95;;;22.73;;
22248;SDS011;67538;52.180;5.646;2023-09-18T04:16:16;41.88;;;23.05;;
22248;SDS011;67538;52.180;5.646;2023-09-18T04:18:43;38.58;;;22.08;;
22248;SDS011;67538;52.180;5.646;2023-09-18T04:21:10;37.70;;;21.88;;
22248;SDS011;67538;52.180;5.646;2023-09-18T04:23:37;35.97;;;22.13;;
22248;SDS011;67538;52.180;5.646;2023-09-18T04:26:05;35.95;;;21.95;;
22248;SDS011;67538;52.180;5.646;2023-09-18T04:28:32;35.63;;;22.27;;
22248;SDS011;67538;52.180;5.646;2023-09-18T04:30:59;37.95;;;22.45;;
22248;SDS011;67538;52.180;5.646;2023-09-18T04:33:27;36.67;;;22.85;;
22248;SDS011;67538;52.180;5.646;2023-09-18T04:35:55;38.22;;;23.02;;
22248;SDS011;67538;52.180;5.646;2023-09-18T04:38:22;40.13;;;23.27;;
22248;SDS011;67538;52.180;5.646;2023-09-18T04:40:49;32.28;;;22.10;;
22248;SDS011;67538;52.180;5.646;2023-09-18T04:43:23;36.67;;;21.90;;
22248;SDS011;67538;52.180;5.646;2023-09-18T04:45:51;38.03;;;23.20;;
22248;SDS011;67538;52.180;5.646;2023-09-18T04:48:18;43.50;;;22.38;;
22248;SDS011;67538;52.180;5.646;2023-09-18T04:50:46;36.10;;;22.73;;
22248;SDS011;67538;52.180;5.646;2023-09-18T04:53:14;37.45;;;23.23;;
22248;SDS011;67538;52.180;5.646;2023-09-18T04:55:41;39.45;;;23.10;;
22248;SDS011;67538;52.180;5.646;2023-09-18T04:58:10;37.90;;;23.00;;
22248;SDS011;67538;52.180;5.646;2023-09-18T05:00:37;39.30;;;22.38;;
22248;SDS011;67538;52.180;5.646;2023-09-18T05:03:04;38.67;;;21.67;;
22248;SDS011;67538;52.180;5.646;2023-09-18T05:05:31;35.42;;;21.83;;
22248;SDS011;67538;52.180;5.646;2023-09-18T05:08:00;37.00;;;21.42;;
22248;SDS011;67538;52.180;5.646;2023-09-18T05:10:29;36.45;;;22.45;;
22248;SDS011;67538;52.180;5.646;2023-09-18T05:12:57;42.47;;;22.80;;
22248;SDS011;67538;52.180;5.646;2023-09-18T05:15:24;39.00;;;23.27;;
22248;SDS011;67538;52.180;5.646;2023-09-18T05:17:54;40.65;;;23.77;;
22248;SDS011;67538;52.180;5.646;2023-09-18T05:20:23;38.45;;;23.65;;
22248;SDS011;67538;52.180;5.646;2023-09-18T05:22:50;42.92;;;24.40;;
22248;SDS011;67538;52.180;5.646;2023-09-18T05:25:20;42.45;;;25.13;;
22248;SDS011;67538;52.180;5.646;2023-09-18T05:27:50;47.17;;;24.85;;
22248;SDS011;67538;52.180;5.646;2023-09-18T05:30:21;40.38;;;24.02;;
22248;SDS011;67538;52.180;5.646;2023-09-18T05:32:53;39.85;;;22.63;;
22248;SDS011;67538;52.180;5.646;2023-09-18T05:35:20;39.40;;;24.10;;
22248;SDS011;67538;52.180;5.646;2023-09-18T05:37:48;40.53;;;23.20;;
22248;SDS011;67538;52.180;5.646;2023-09-18T05:40:16;37.67;;;23.20;;
22248;SDS011;67538;52.180;5.646;2023-09-18T05:42:45;43.00;;;23.73;;
22248;SDS011;67538;52.180;5.646;2023-09-18T05:45:12;41.95;;;23.50;;
22248;SDS011;67538;52.180;5.646;2023-09-18T05:47:41;37.38;;;21.20;;
22248;SDS011;67538;52.180;5.646;2023-09-18T05:50:09;38.83;;;22.20;;
22248;SDS011;67538;52.180;5.646;2023-09-18T05:52:40;35.85;;;22.40;;
22248;SDS011;67538;52.180;5.646;2023-09-18T05:55:07;34.80;;;22.00;;
22248;SDS011;67538;52.180;5.646;2023-09-18T05:57:35;37.30;;;22.92;;
22248;SDS011;67538;52.180;5.646;2023-09-18T06:00:04;39.83;;;21.73;;
22248;SDS011;67538;52.180;5.646;2023-09-18T06:02:33;40.33;;;22.03;;
22248;SDS011;67538;52.180;5.646;2023-09-18T06:05:00;41.77;;;22.47;;
22248;SDS011;67538;52.180;5.646;2023-09-18T06:07:28;38.72;;;21.48;;
22248;SDS011;67538;52.180;5.646;2023-09-18T06:09:55;40.55;;;21.85;;
22248;SDS011;67538;52.180;5.646;2023-09-18T06:12:23;36.05;;;20.17;;
22248;SDS011;67538;52.180;5.646;2023-09-18T06:14:51;38.63;;;21.05;;
22248;SDS011;67538;52.180;5.646;2023-09-18T06:17:20;39.78;;;21.88;;
22248;SDS011;67538;52.180;5.646;2023-09-18T06:19:47;37.63;;;20.70;;
22248;SDS011;67538;52.180;5.646;2023-09-18T06:22:14;38.28;;;20.70;;
22248;SDS011;67538;52.180;5.646;2023-09-18T06:24:41;38.30;;;21.27;;
22248;SDS011;67538;52.180;5.646;2023-09-18T06:27:09;36.67;;;21.00;;
22248;SDS011;67538;52.180;5.646;2023-09-18T06:29:37;40.88;;;22.10;;
22248;SDS011;67538;52.180;5.646;2023-09-18T06:32:04;40.45;;;22.40;;
22248;SDS011;67538;52.180;5.646;2023-09-18T06:34:34;38.33;;;22.27;;
22248;SDS011;67538;52.180;5.646;2023-09-18T06:37:01;43.38;;;22.67;;
22248;SDS011;67538;52.180;5.646;2023-09-18T06:39:29;39.45;;;23.38;;
22248;SDS011;67538;52.180;5.646;2023-09-18T06:41:56;41.15;;;23.05;;
22248;SDS011;67538;52.180;5.646;2023-09-18T06:44:23;40.97;;;23.67;;
22248;SDS011;67538;52.180;5.646;2023-09-18T06:46:51;40.53;;;23.65;;
22248;SDS011;67538;52.180;5.646;2023-09-18T06:49:18;43.70;;;23.80;;
22248;SDS011;67538;52.180;5.646;2023-09-18T06:51:47;37.55;;;22.88;;
22248;SDS011;67538;52.180;5.646;2023-09-18T06:54:14;39.42;;;23.15;;
22248;SDS011;67538;52.180;5.646;2023-09-18T06:56:41;43.45;;;23.38;;
22248;SDS011;67538;52.180;5.646;2023-09-18T06:59:09;39.03;;;22.90;;
22248;SDS011;67538;52.180;5.646;2023-09-18T07:01:37;37.58;;;22.15;;
22248;SDS011;67538;52.180;5.646;2023-09-18T07:04:05;39.80;;;22.10;;
22248;SDS011;67538;52.180;5.646;2023-09-18T07:06:32;39.87;;;21.93;;
22248;SDS011;67538;52.180;5.646;2023-09-18T07:09:01;37.20;;;21.85;;
22248;SDS011;67538;52.180;5.646;2023-09-18T07:11:29;38.58;;;22.30;;
22248;SDS011;67538;52.180;5.646;2023-09-18T07:13:57;39.15;;;21.75;;
22248;SDS011;67538;52.180;5.646;2023-09-18T07:16:24;41.40;;;22.48;;
22248;SDS011;67538;52.180;5.646;2023-09-18T07:18:51;37.70;;;22.20;;
22248;SDS011;67538;52.180;5.646;2023-09-18T07:21:18;39.05;;;22.08;;
22248;SDS011;67538;52.180;5.646;2023-09-18T07:23:45;38.65;;;22.27;;
22248;SDS011;67538;52.180;5.646;2023-09-18T07:26:15;39.53;;;21.25;;
22248;SDS011;67538;52.180;5.646;2023-09-18T07:28:42;37.78;;;21.38;;
22248;SDS011;67538;52.180;5.646;2023-09-18T07:31:09;39.90;;;21.63;;
22248;SDS011;67538;52.180;5.646;2023-09-18T07:33:39;36.15;;;20.75;;
22248;SDS011;67538;52.180;5.646;2023-09-18T07:36:07;38.07;;;20.80;;
22248;SDS011;67538;52.180;5.646;2023-09-18T07:38:35;33.88;;;20.30;;
22248;SDS011;67538;52.180;5.646;2023-09-18T07:41:03;35.57;;;19.97;;
22248;SDS011;67538;52.180;5.646;2023-09-18T07:43:31;34.38;;;19.40;;
22248;SDS011;67538;52.180;5.646;2023-09-18T07:45:58;32.78;;;19.33;;
22248;SDS011;67538;52.180;5.646;2023-09-18T07:48:27;29.48;;;18.13;;
22248;SDS011;67538;52.180;5.646;2023-09-18T07:50:54;32.85;;;18.38;;
22248;SDS011;67538;52.180;5.646;2023-09-18T07:53:21;29.25;;;17.77;;
22248;SDS011;67538;52.180;5.646;2023-09-18T07:55:48;27.60;;;17.33;;
22248;SDS011;67538;52.180;5.646;2023-09-18T07:58:21;32.92;;;17.85;;
22248;SDS011;67538;52.180;5.646;2023-09-18T08:00:53;27.55;;;16.77;;
22248;SDS011;67538;52.180;5.646;2023-09-18T08:03:20;26.60;;;16.30;;
22248;SDS011;67538;52.180;5.646;2023-09-18T08:05:49;27.35;;;15.82;;
22248;SDS011;67538;52.180;5.646;2023-09-18T08:08:17;24.35;;;15.52;;
22248;SDS011;67538;52.180;5.646;2023-09-18T08:10:46;24.05;;;15.45;;
22248;SDS011;67538;52.180;5.646;2023-09-18T08:13:13;23.75;;;14.55;;
22248;SDS011;67538;52.180;5.646;2023-09-18T08:15:42;23.33;;;14.20;;
22248;SDS011;67538;52.180;5.646;2023-09-18T08:18:11;24.27;;;14.27;;
22248;SDS011;67538;52.180;5.646;2023-09-18T08:20:40;20.20;;;13.45;;
22248;SDS011;67538;52.180;5.646;2023-09-18T08:23:08;20.35;;;12.80;;
22248;SDS011;67538;52.180;5.646;2023-09-18T08:25:35;20.05;;;12.25;;
22248;SDS011;67538;52.180;5.646;2023-09-18T08:28:02;17.33;;;12.05;;
22248;SDS011;67538;52.180;5.646;2023-09-18T08:30:31;21.75;;;11.88;;
22248;SDS011;67538;52.180;5.646;2023-09-18T08:32:59;17.55;;;11.38;;
22248;SDS011;67538;52.180;5.646;2023-09-18T08:35:27;15.13;;;10.30;;
22248;SDS011;67538;52.180;5.646;2023-09-18T08:37:55;14.80;;;10.30;;
22248;SDS011;67538;52.180;5.646;2023-09-18T08:40:22;15.40;;;10.32;;
22248;SDS011;67538;52.180;5.646;2023-09-18T08:42:51;16.33;;;10.67;;
22248;SDS011;67538;52.180;5.646;2023-09-18T08:45:22;15.57;;;10.18;;
22248;SDS011;67538;52.180;5.646;2023-09-18T08:47:58;15.07;;;9.60;;
22248;SDS011;67538;52.180;5.646;2023-09-18T08:50:28;15.60;;;10.20;;
22248;SDS011;67538;52.180;5.646;2023-09-18T08:52:56;16.02;;;9.60;;
22248;SDS011;67538;52.180;5.646;2023-09-18T08:55:23;13.50;;;9.55;;
22248;SDS011;67538;52.180;5.646;2023-09-18T08:57:50;13.50;;;9.05;;
22248;SDS011;67538;52.180;5.646;2023-09-18T09:00:19;10.75;;;7.60;;
22248;SDS011;67538;52.180;5.646;2023-09-18T09:02:46;11.52;;;7.47;;
22248;SDS011;67538;52.180;5.646;2023-09-18T09:05:16;10.33;;;6.70;;
22248;SDS011;67538;52.180;5.646;2023-09-18T09:07:45;12.20;;;7.35;;
22248;SDS011;67538;52.180;5.646;2023-09-18T09:10:12;12.17;;;6.50;;
22248;SDS011;67538;52.180;5.646;2023-09-18T09:12:49;9.60;;;6.63;;
22248;SDS011;67538;52.180;5.646;2023-09-18T09:15:20;11.70;;;6.47;;
22248;SDS011;67538;52.180;5.646;2023-09-18T09:17:47;10.00;;;6.53;;
22248;SDS011;67538;52.180;5.646;2023-09-18T09:20:15;10.32;;;6.10;;
22248;SDS011;67538;52.180;5.646;2023-09-18T09:22:45;10.07;;;5.97;;
22248;SDS011;67538;52.180;5.646;2023-09-18T09:25:22;11.38;;;6.07;;
22248;SDS011;67538;52.180;5.646;2023-09-18T09:27:53;11.30;;;5.88;;
22248;SDS011;67538;52.180;5.646;2023-09-18T09:30:21;8.30;;;5.65;;
22248;SDS011;67538;52.180;5.646;2023-09-18T09:32:49;8.88;;;5.80;;
22248;SDS011;67538;52.180;5.646;2023-09-18T09:35:19;10.77;;;5.60;;
22248;SDS011;67538;52.180;5.646;2023-09-18T09:37:53;7.80;;;5.13;;
22248;SDS011;67538;52.180;5.646;2023-09-18T09:40:24;9.30;;;4.97;;
22248;SDS011;67538;52.180;5.646;2023-09-18T09:42:52;8.27;;;5.10;;
22248;SDS011;67538;52.180;5.646;2023-09-18T09:45:25;11.10;;;5.38;;
22248;SDS011;67538;52.180;5.646;2023-09-18T09:47:54;8.18;;;4.95;;
22248;SDS011;67538;52.180;5.646;2023-09-18T09:50:22;9.57;;;4.45;;
22248;SDS011;67538;52.180;5.646;2023-09-18T09:52:51;7.07;;;4.50;;
22248;SDS011;67538;52.180;5.646;2023-09-18T09:55:24;8.83;;;4.57;;
22248;SDS011;67538;52.180;5.646;2023-09-18T09:57:54;9.82;;;4.43;;
22248;SDS011;67538;52.180;5.646;2023-09-18T10:00:25;7.55;;;4.03;;
22248;SDS011;67538;52.180;5.646;2023-09-18T10:02:58;10.02;;;4.25;;
22248;SDS011;67538;52.180;5.646;2023-09-18T10:05:29;8.88;;;4.25;;
22248;SDS011;67538;52.180;5.646;2023-09-18T10:07:59;7.15;;;4.28;;
22248;SDS011;67538;52.180;5.646;2023-09-18T10:10:29;6.33;;;4.20;;
22248;SDS011;67538;52.180;5.646;2023-09-18T10:13:00;7.43;;;4.40;;
22248;SDS011;67538;52.180;5.646;2023-09-18T10:15:36;6.53;;;4.53;;
22248;SDS011;67538;52.180;5.646;2023-09-18T10:18:07;7.25;;;4.47;;
22248;SDS011;67538;52.180;5.646;2023-09-18T10:20:43;7.80;;;4.35;;
22248;SDS011;67538;52.180;5.646;2023-09-18T10:23:18;7.82;;;3.85;;
22248;SDS011;67538;52.180;5.646;2023-09-18T10:25:53;12.77;;;4.40;;
22248;SDS011;67538;52.180;5.646;2023-09-18T10:28:25;8.57;;;3.85;;
22248;SDS011;67538;52.180;5.646;2023-09-18T10:30:56;8.13;;;3.70;;
22248;SDS011;67538;52.180;5.646;2023-09-18T10:33:25;8.23;;;4.10;;
22248;SDS011;67538;52.180;5.646;2023-09-18T10:35:53;6.20;;;3.65;;
22248;SDS011;67538;52.180;5.646;2023-09-18T10:38:23;6.93;;;3.78;;
22248;SDS011;67538;52.180;5.646;2023-09-18T10:40:53;7.53;;;3.83;;
22248;SDS011;67538;52.180;5.646;2023-09-18T10:43:23;6.85;;;4.00;;
22248;SDS011;67538;52.180;5.646;2023-09-18T10:45:50;6.68;;;4.47;;
22248;SDS011;67538;52.180;5.646;2023-09-18T10:48:18;8.23;;;5.17;;
22248;SDS011;67538;52.180;5.646;2023-09-18T10:50:48;7.68;;;5.90;;
22248;SDS011;67538;52.180;5.646;2023-09-18T10:53:17;9.27;;;6.80;;
22248;SDS011;67538;52.180;5.646;2023-09-18T10:55:47;14.30;;;6.30;;
22248;SDS011;67538;52.180;5.646;2023-09-18T10:58:23;8.70;;;6.72;;
22248;SDS011;67538;52.180;5.646;2023-09-18T11:00:51;9.23;;;6.57;;
22248;SDS011;67538;52.180;5.646;2023-09-18T11:03:22;11.50;;;7.50;;
22248;SDS011;67538;52.180;5.646;2023-09-18T11:06:01;10.13;;;7.43;;
22248;SDS011;67538;52.180;5.646;2023-09-18T11:08:30;10.43;;;8.05;;
22248;SDS011;67538;52.180;5.646;2023-09-18T11:11:05;10.70;;;8.13;;
22248;SDS011;67538;52.180;5.646;2023-09-18T11:13:39;12.52;;;8.43;;
22248;SDS011;67538;52.180;5.646;2023-09-18T11:16:15;12.55;;;8.93;;
22248;SDS011;67538;52.180;5.646;2023-09-18T11:18:45;13.43;;;9.60;;
22248;SDS011;67538;52.180;5.646;2023-09-18T11:21:15;15.57;;;9.85;;
22248;SDS011;67538;52.180;5.646;2023-09-18T11:23:44;17.05;;;10.43;;
22248;SDS011;67538;52.180;5.646;2023-09-18T11:26:14;12.25;;;9.32;;
22248;SDS011;67538;52.180;5.646;2023-09-18T11:28:42;13.30;;;9.40;;
22248;SDS011;67538;52.180;5.646;2023-09-18T11:31:09;14.27;;;9.55;;
22248;SDS011;67538;52.180;5.646;2023-09-18T11:33:37;14.82;;;10.07;;
22248;SDS011;67538;52.180;5.646;2023-09-18T11:36:08;15.35;;;10.55;;
22248;SDS011;67538;52.180;5.646;2023-09-18T11:38:52;13.55;;;9.95;;
22248;SDS011;67538;52.180;5.646;2023-09-18T11:41:23;15.90;;;10.18;;
22248;SDS011;67538;52.180;5.646;2023-09-18T11:43:52;14.52;;;9.32;;
22248;SDS011;67538;52.180;5.646;2023-09-18T11:46:40;15.55;;;9.88;;
22248;SDS011;67538;52.180;5.646;2023-09-18T11:49:14;14.85;;;10.38;;
22248;SDS011;67538;52.180;5.646;2023-09-18T11:51:41;13.27;;;10.07;;
22248;SDS011;67538;52.180;5.646;2023-09-18T11:54:09;13.93;;;9.00;;
22248;SDS011;67538;52.180;5.646;2023-09-18T11:56:38;13.05;;;8.57;;
22248;SDS011;67538;52.180;5.646;2023-09-18T11:59:06;15.27;;;9.57;;
22248;SDS011;67538;52.180;5.646;2023-09-18T12:01:34;13.20;;;8.68;;
22248;SDS011;67538;52.180;5.646;2023-09-18T12:04:02;15.20;;;8.65;;
22248;SDS011;67538;52.180;5.646;2023-09-18T12:06:32;11.75;;;8.30;;
22248;SDS011;67538;52.180;5.646;2023-09-18T12:09:00;12.75;;;8.30;;
22248;SDS011;67538;52.180;5.646;2023-09-18T12:11:28;11.10;;;7.60;;
22248;SDS011;67538;52.180;5.646;2023-09-18T12:13:57;10.30;;;5.90;;
22248;SDS011;67538;52.180;5.646;2023-09-18T12:16:24;10.13;;;5.37;;
22248;SDS011;67538;52.180;5.646;2023-09-18T12:18:52;10.52;;;5.57;;
22248;SDS011;67538;52.180;5.646;2023-09-18T12:21:20;8.20;;;4.93;;
22248;SDS011;67538;52.180;5.646;2023-09-18T12:23:47;11.40;;;5.20;;
22248;SDS011;67538;52.180;5.646;2023-09-18T12:26:15;8.77;;;4.75;;
22248;SDS011;67538;52.180;5.646;2023-09-18T12:28:45;11.05;;;4.57;;
22248;SDS011;67538;52.180;5.646;2023-09-18T12:31:14;11.10;;;4.22;;
22248;SDS011;67538;52.180;5.646;2023-09-18T12:33:42;9.70;;;4.97;;
22248;SDS011;67538;52.180;5.646;2023-09-18T12:36:12;8.73;;;4.45;;
22248;SDS011;67538;52.180;5.646;2023-09-18T12:38:40;11.43;;;4.30;;
22248;SDS011;67538;52.180;5.646;2023-09-18T12:41:07;8.52;;;4.70;;
22248;SDS011;67538;52.180;5.646;2023-09-18T12:43:37;10.07;;;4.60;;
22248;SDS011;67538;52.180;5.646;2023-09-18T12:46:07;11.05;;;4.85;;
22248;SDS011;67538;52.180;5.646;2023-09-18T12:48:39;7.60;;;4.65;;
22248;SDS011;67538;52.180;5.646;2023-09-18T12:51:11;8.55;;;4.88;;
22248;SDS011;67538;52.180;5.646;2023-09-18T12:53:39;8.85;;;5.05;;
22248;SDS011;67538;52.180;5.646;2023-09-18T12:56:07;11.95;;;4.80;;
22248;SDS011;67538;52.180;5.646;2023-09-18T12:58:36;16.25;;;4.82;;
22248;SDS011;67538;52.180;5.646;2023-09-18T13:01:04;10.73;;;5.50;;
22248;SDS011;67538;52.180;5.646;2023-09-18T13:03:34;8.70;;;5.40;;
22248;SDS011;67538;52.180;5.646;2023-09-18T13:06:15;8.77;;;5.82;;
22248;SDS011;67538;52.180;5.646;2023-09-18T13:08:43;10.63;;;5.60;;
22248;SDS011;67538;52.180;5.646;2023-09-18T13:11:11;9.57;;;4.75;;
22248;SDS011;67538;52.180;5.646;2023-09-18T13:13:41;9.60;;;5.05;;
22248;SDS011;67538;52.180;5.646;2023-09-18T13:16:09;10.80;;;4.72;;
22248;SDS011;67538;52.180;5.646;2023-09-18T13:18:38;8.65;;;4.95;;
22248;SDS011;67538;52.180;5.646;2023-09-18T13:21:13;9.43;;;4.75;;
22248;SDS011;67538;52.180;5.646;2023-09-18T13:23:40;8.97;;;4.30;;
22248;SDS011;67538;52.180;5.646;2023-09-18T13:26:07;8.30;;;3.97;;
22248;SDS011;67538;52.180;5.646;2023-09-18T13:28:35;8.25;;;3.83;;
22248;SDS011;67538;52.180;5.646;2023-09-18T13:31:02;7.78;;;3.95;;
22248;SDS011;67538;52.180;5.646;2023-09-18T13:33:31;6.30;;;3.80;;
22248;SDS011;67538;52.180;5.646;2023-09-18T13:35:59;9.55;;;3.83;;
22248;SDS011;67538;52.180;5.646;2023-09-18T13:38:27;5.77;;;3.50;;
22248;SDS011;67538;52.180;5.646;2023-09-18T13:40:54;7.15;;;3.90;;
22248;SDS011;67538;52.180;5.646;2023-09-18T13:43:21;9.88;;;4.07;;
22248;SDS011;67538;52.180;5.646;2023-09-18T13:45:49;6.03;;;3.70;;
22248;SDS011;67538;52.180;5.646;2023-09-18T13:48:18;9.02;;;3.90;;
22248;SDS011;67538;52.180;5.646;2023-09-18T13:50:46;7.05;;;3.45;;
22248;SDS011;67538;52.180;5.646;2023-09-18T13:53:14;6.20;;;3.30;;
22248;SDS011;67538;52.180;5.646;2023-09-18T13:55:42;9.85;;;3.40;;
22248;SDS011;67538;52.180;5.646;2023-09-18T13:58:10;11.90;;;3.95;;
22248;SDS011;67538;52.180;5.646;2023-09-18T14:00:37;5.85;;;3.17;;
22248;SDS011;67538;52.180;5.646;2023-09-18T14:03:04;6.13;;;2.65;;
22248;SDS011;67538;52.180;5.646;2023-09-18T14:05:31;8.57;;;3.30;;
22248;SDS011;67538;52.180;5.646;2023-09-18T14:07:59;5.82;;;2.90;;
22248;SDS011;67538;52.180;5.646;2023-09-18T14:10:28;6.22;;;2.90;;
22248;SDS011;67538;52.180;5.646;2023-09-18T14:12:56;6.45;;;3.00;;
22248;SDS011;67538;52.180;5.646;2023-09-18T14:15:23;5.55;;;2.65;;
22248;SDS011;67538;52.180;5.646;2023-09-18T14:17:51;7.20;;;2.95;;
22248;SDS011;67538;52.180;5.646;2023-09-18T14:20:19;7.47;;;2.63;;
22248;SDS011;67538;52.180;5.646;2023-09-18T14:22:46;7.00;;;3.30;;
22248;SDS011;67538;52.180;5.646;2023-09-18T14:25:15;5.20;;;2.60;;
22248;SDS011;67538;52.180;5.646;2023-09-18T14:27:42;9.13;;;3.00;;
22248;SDS011;67538;52.180;5.646;2023-09-18T14:30:11;7.97;;;3.55;;
22248;SDS011;67538;52.180;5.646;2023-09-18T14:32:39;7.70;;;3.00;;
22248;SDS011;67538;52.180;5.646;2023-09-18T14:35:07;7.38;;;3.03;;
22248;SDS011;67538;52.180;5.646;2023-09-18T14:37:34;5.33;;;2.87;;